No Name Key, Florida
Current Conditions -  °F | °C
As of 11:53 PM on Tuesday 25 Nov 2014 (Local Time) from KMTH Reporting Station
Clear Clear  
Wind Chill: 79°   Ceiling: Unl
Heat Index: 84°   Visibility: 8mi
Dew Point: 79°   Wind: 8mph
Humidity: 100%   Direction: 160°SSE
Pressure: 29.94"   Gusts: NA
Location:  24.6898°N, 81.3687°W
Report Text: KMTH 260453Z AUTO 16007KT 8SM CLR 26/26 A2994 RMK AO2 SLP138 P0001 T02610261 402940256
Loading
Personal Weather Stations






























Interactive Weather Map New forecast layout! Learn more

10-Day Weather Forecast

Advertisements
Track Severe Weather on mobile